LUKK Airport Information

Runway Information
Runway 08 Length 11779 ft width 145 ft
Elevation 399 ft Threshold 0 ft Heading 88
Runway 26 Length 11779 ft Width 145 ft
Elevation 279 ft Threshold 0 ft Heading 268
Airport Frequencies
Type APP Name APP Frequency 125.9 MHZ
Type ATIS Name ATIS Frequency 133.7 MHZ
Type GND Name GND Frequency 121.8 MHZ
Type TWR Name TWR Frequency 118.1 MHZ
Airport Navaids
Type VOR-DME Name Chisinau Frequency 113700 KHZ
Airport Weather Information & NOTAM
ADDS - METARS form results

(0809 UTC 22 May 2018)
 
METAR text: LUKK 220800Z 13004KT 030V180 9999 FEW036 21/10 Q1021 R08/D NOSIG
Conditions at: LUKK (CHISINAU INTL , MD) observed 0800 UTC 22 May 2018
Temperature: 21.0°C (70°F)
Dewpoint: 10.0°C (50°F) [RH = 49%]
Pressure (altimeter): 30.15 inches Hg (1021.0 mb)
Winds: from the SE (130 degrees) at 5 MPH (4 knots; 2.1 m/s)
Visibility: 6 or more miles (10+ km)
Ceiling: at least 12,000 feet AGL
Clouds: few clouds at 3600 feet AGL
Weather: no significant weather observed at this time

METAR text: LUKK 220730Z 10004KT 040V160 9999 FEW032 20/11 Q1022 R08/D NOSIG
Conditions at: LUKK (CHISINAU INTL , MD) observed 0730 UTC 22 May 2018
Temperature: 20.0°C (68°F)
Dewpoint: 11.0°C (52°F) [RH = 56%]
Pressure (altimeter): 30.18 inches Hg (1022.0 mb)
Winds: from the E (100 degrees) at 5 MPH (4 knots; 2.1 m/s)
Visibility: 6 or more miles (10+ km)
Ceiling: at least 12,000 feet AGL
Clouds: few clouds at 3200 feet AGL
Weather: no significant weather observed at this time